createdAt,value
2023-04-12T00:01:04.402Z,100969.63
2023-04-12T00:03:34.349Z,100958.28
2023-04-12T00:06:03.244Z,100951.25
2023-04-12T00:08:33.330Z,100953.00
2023-04-12T00:11:01.072Z,100950.31
2023-04-12T00:13:28.782Z,100935.53
2023-04-12T00:15:56.055Z,100949.38
2023-04-12T00:18:25.244Z,100942.41
2023-04-12T00:20:53.149Z,100944.97
2023-04-12T00:23:20.509Z,100951.81
2023-04-12T00:25:47.620Z,100930.13
2023-04-12T00:28:16.020Z,100936.97
2023-04-12T00:30:43.877Z,100936.06
2023-04-12T00:33:10.821Z,100932.53
2023-04-12T00:35:37.741Z,100930.75
2023-04-12T00:38:06.228Z,100930.66
2023-04-12T00:40:33.267Z,100933.22
2023-04-12T00:43:00.978Z,100922.75
2023-04-12T00:45:27.944Z,100928.75
2023-04-12T00:47:56.432Z,100921.75
2023-04-12T00:50:24.044Z,100925.16
2023-04-12T00:52:52.021Z,100913.88
2023-04-12T00:55:19.013Z,100910.34
2023-04-12T00:57:46.802Z,100915.50
2023-04-12T01:00:14.197Z,100903.28
2023-04-12T01:02:47.703Z,100905.84
2023-04-12T01:05:21.970Z,100908.34
2023-04-12T01:08:12.004Z,100904.63
2023-04-12T01:10:50.913Z,100918.50
2023-04-12T01:13:35.052Z,100916.69
2023-04-12T01:16:40.763Z,100909.66
2023-04-12T01:20:06.375Z,100912.13
2023-04-12T01:23:28.371Z,100909.44
2023-04-12T01:26:32.940Z,100918.00
2023-04-12T01:29:08.158Z,100915.34
2023-04-12T01:31:36.927Z,100905.78
2023-04-12T01:34:06.147Z,100902.22
2023-04-12T01:36:34.739Z,100908.22
2023-04-12T01:39:04.790Z,100903.91
2023-04-12T01:41:33.146Z,100899.47
2023-04-12T01:44:00.143Z,100899.41
2023-04-12T01:46:27.067Z,100889.75
2023-04-12T01:48:55.969Z,100907.91
2023-04-12T01:51:42.193Z,100906.94
2023-04-12T01:54:13.281Z,100907.81
2023-04-12T01:56:44.952Z,100905.16
2023-04-12T01:59:16.173Z,100893.00
2023-04-12T02:01:44.472Z,100894.69
2023-04-12T02:04:12.229Z,100883.31
2023-04-12T02:06:41.016Z,100891.13
2023-04-12T02:09:09.702Z,100886.78
2023-04-12T02:11:36.658Z,100887.63
2023-04-12T02:14:03.549Z,100878.06
2023-04-12T02:16:32.400Z,100872.84
2023-04-12T02:19:00.647Z,100871.94
2023-04-12T02:21:27.920Z,100871.88
2023-04-12T02:23:55.226Z,100866.66
2023-04-12T02:26:23.401Z,100859.69
2023-04-12T02:28:52.641Z,100863.94
2023-04-12T02:31:19.681Z,100869.97
2023-04-12T02:33:49.082Z,100865.63
2023-04-12T02:36:16.298Z,100858.66
2023-04-12T02:38:43.434Z,100856.06
2023-04-12T02:41:22.051Z,100856.88
2023-04-12T02:43:49.672Z,100849.81
2023-04-12T02:46:23.877Z,100854.13
2023-04-12T02:48:56.574Z,100855.78
2023-04-12T02:51:32.221Z,100854.88
2023-04-12T02:54:00.440Z,100858.22
2023-04-12T02:56:36.184Z,100850.38
2023-04-12T02:59:11.560Z,100846.84
2023-04-12T03:01:58.574Z,100849.31
2023-04-12T03:04:30.778Z,100842.34
2023-04-12T03:07:00.329Z,100837.06
2023-04-12T03:09:50.699Z,100840.44
2023-04-12T03:12:19.911Z,100830.91
2023-04-12T03:15:08.044Z,100826.47
2023-04-12T03:17:35.044Z,100821.25
2023-04-12T03:20:10.134Z,100823.78
2023-04-12T03:22:40.433Z,100806.31
2023-04-12T03:25:10.235Z,100819.28
2023-04-12T03:27:41.543Z,100817.50
2023-04-12T03:30:10.381Z,100820.03
2023-04-12T03:32:42.669Z,100822.50
2023-04-12T03:35:11.590Z,100805.25
2023-04-12T03:37:43.196Z,100808.66
2023-04-12T03:40:12.020Z,100804.31
2023-04-12T03:42:42.825Z,100800.81
2023-04-12T03:45:14.758Z,100792.91
2023-04-12T03:47:46.250Z,100792.09
2023-04-12T03:50:14.579Z,100792.00
2023-04-12T03:52:47.695Z,100784.97
2023-04-12T03:55:18.274Z,100791.81
2023-04-12T03:57:46.901Z,100792.56
2023-04-12T04:00:14.971Z,100786.41
2023-04-12T04:03:14.330Z,100776.75
2023-04-12T04:05:45.829Z,100767.22
2023-04-12T04:08:14.061Z,100768.00
2023-04-12T04:11:01.365Z,100773.97
2023-04-12T04:13:34.969Z,100765.28
2023-04-12T04:16:07.360Z,100754.91
2023-04-12T04:18:35.971Z,100766.03
2023-04-12T04:21:03.351Z,100746.97
2023-04-12T04:23:39.142Z,100745.16
2023-04-12T04:26:10.485Z,100753.72
2023-04-12T04:28:44.964Z,100759.75
2023-04-12T04:31:17.379Z,100757.97
2023-04-12T04:33:47.741Z,100750.16
2023-04-12T04:36:15.772Z,100762.44
2023-04-12T04:38:48.174Z,100756.56
2023-04-12T04:41:26.432Z,100757.59
2023-04-12T04:44:00.551Z,100749.13
2023-04-12T04:46:32.108Z,100753.66
2023-04-12T04:49:00.125Z,100748.56
2023-04-12T04:51:27.359Z,100734.91
2023-04-12T04:53:56.723Z,100756.88
2023-04-12T04:56:25.025Z,100754.41
2023-04-12T04:58:54.746Z,100755.34
2023-04-12T05:01:28.423Z,100749.41
2023-04-12T05:03:57.408Z,100744.34
2023-04-12T05:06:27.459Z,100738.44
2023-04-12T05:08:56.642Z,100738.44
2023-04-12T05:11:23.810Z,100741.13
2023-04-12T05:13:51.328Z,100739.50
2023-04-12T05:16:18.399Z,100736.22
2023-04-12T05:18:46.069Z,100726.72
2023-04-12T05:21:13.055Z,100735.41
2023-04-12T05:23:46.884Z,100743.22
2023-04-12T05:26:14.337Z,100743.22
2023-04-12T05:28:45.892Z,100728.63
2023-04-12T05:31:13.574Z,100727.81
2023-04-12T05:33:40.530Z,100722.63
2023-04-12T05:36:07.978Z,100712.28
2023-04-12T05:38:34.938Z,100723.56
2023-04-12T05:41:05.820Z,100707.94
2023-04-12T05:43:33.902Z,100720.97
2023-04-12T05:46:02.077Z,100721.13
2023-04-12T05:48:30.431Z,100719.41
2023-04-12T05:51:02.708Z,100725.53
2023-04-12T05:53:32.766Z,100714.38
2023-04-12T05:56:02.693Z,100719.59
2023-04-12T05:58:30.291Z,100712.78
2023-04-12T06:00:57.616Z,100715.44
2023-04-12T06:03:25.307Z,100714.66
2023-04-12T06:05:54.386Z,100707.81
2023-04-12T06:08:21.308Z,100703.59
2023-04-12T06:10:48.188Z,100698.50
2023-04-12T06:13:15.352Z,100693.44
2023-04-12T06:15:43.408Z,100684.88
2023-04-12T06:18:12.880Z,100677.19
2023-04-12T06:20:40.492Z,100674.72
2023-04-12T06:23:07.482Z,100676.59
2023-04-12T06:25:35.034Z,100671.50
2023-04-12T06:28:02.690Z,100658.63
2023-04-12T06:30:30.648Z,100664.78
2023-04-12T06:32:57.883Z,100660.53
2023-04-12T06:35:25.512Z,100642.44
2023-04-12T06:37:52.487Z,100643.47
2023-04-12T06:40:19.665Z,100644.44
2023-04-12T06:42:46.621Z,100646.28
2023-04-12T06:45:21.734Z,100635.22
2023-04-12T06:47:48.653Z,100638.81
2023-04-12T06:50:15.633Z,100638.06
2023-04-12T06:52:42.516Z,100640.75
2023-04-12T06:55:09.559Z,100632.19
2023-04-12T06:57:36.536Z,100632.22
2023-04-12T07:00:04.310Z,100625.44
2023-04-12T07:02:31.287Z,100619.50
2023-04-12T07:04:58.290Z,100615.28
2023-04-12T07:07:25.182Z,100613.63
2023-04-12T07:09:52.490Z,100609.41
2023-04-12T07:12:19.364Z,100603.41
2023-04-12T07:14:46.222Z,100610.41
2023-04-12T07:17:13.263Z,100609.63
2023-04-12T07:19:41.965Z,100598.31
2023-04-12T07:22:08.925Z,100598.47
2023-04-12T07:24:35.782Z,100602.91
2023-04-12T07:27:02.691Z,100597.81
2023-04-12T07:29:29.557Z,100597.03
2023-04-12T07:31:56.422Z,100599.69
2023-04-12T07:34:24.264Z,100591.06
2023-04-12T07:36:51.296Z,100582.44
2023-04-12T07:39:18.198Z,100597.28
2023-04-12T07:41:46.862Z,100580.81
2023-04-12T07:44:13.792Z,100585.19
2023-04-12T07:46:41.871Z,100589.56
2023-04-12T07:49:10.532Z,100580.94
2023-04-12T07:51:37.660Z,100586.16
2023-04-12T07:54:05.010Z,100573.19
2023-04-12T07:56:35.714Z,100568.88
2023-04-12T07:59:02.732Z,100563.66
2023-04-12T08:01:30.307Z,100562.81
2023-04-12T08:03:57.654Z,100557.63
2023-04-12T08:06:25.797Z,100558.50
2023-04-12T08:08:54.364Z,100555.03
2023-04-12T08:11:21.476Z,100547.22
2023-04-12T08:13:48.349Z,100542.00
2023-04-12T08:16:15.736Z,100538.56
2023-04-12T08:18:42.701Z,100520.31
2023-04-12T08:21:09.624Z,100527.28
2023-04-12T08:23:36.475Z,100534.22
2023-04-12T08:26:03.632Z,100535.09
2023-04-12T08:28:31.180Z,100537.72
2023-04-12T08:30:59.132Z,100533.34
2023-04-12T08:33:26.705Z,100527.25
2023-04-12T08:35:53.621Z,100520.28
2023-04-12T08:38:25.448Z,100520.25
2023-04-12T08:40:58.703Z,100512.44
2023-04-12T08:43:29.049Z,100517.63
2023-04-12T08:45:58.792Z,100511.53
2023-04-12T08:48:27.106Z,100496.72
2023-04-12T08:50:57.000Z,100501.03
2023-04-12T08:53:23.887Z,100495.78
2023-04-12T08:55:51.014Z,100483.56
2023-04-12T08:58:18.089Z,100490.47
2023-04-12T09:00:46.182Z,100481.75
2023-04-12T09:03:13.269Z,100475.63
2023-04-12T09:05:40.347Z,100465.16
2023-04-12T09:08:07.252Z,100462.50
2023-04-12T09:10:38.606Z,100457.13
2023-04-12T09:13:06.528Z,100460.59
2023-04-12T09:15:34.609Z,100446.66
2023-04-12T09:18:08.438Z,100450.13
2023-04-12T09:20:35.906Z,100447.47
2023-04-12T09:23:26.757Z,100442.22
2023-04-12T09:25:53.771Z,100429.13
2023-04-12T09:28:24.257Z,100428.22
2023-04-12T09:30:56.566Z,100423.88
2023-04-12T09:33:39.534Z,100422.03
2023-04-12T09:36:14.253Z,100418.50
2023-04-12T09:38:43.314Z,100411.47
2023-04-12T09:41:26.080Z,100407.94
2023-04-12T09:43:53.918Z,100410.53
2023-04-12T09:46:20.836Z,100407.00
2023-04-12T09:48:55.869Z,100392.19
2023-04-12T09:51:32.778Z,100396.47
2023-04-12T09:54:05.190Z,100387.69
2023-04-12T09:56:37.803Z,100372.75
2023-04-12T09:59:07.105Z,100373.59
2023-04-12T10:01:39.999Z,100367.41
2023-04-12T10:04:09.183Z,100358.59
2023-04-12T10:06:41.320Z,100357.59
2023-04-12T10:09:08.902Z,100361.00
2023-04-12T10:11:37.394Z,100353.91
2023-04-12T10:14:06.037Z,100339.84
2023-04-12T10:16:35.029Z,100326.66
2023-04-12T10:19:05.238Z,100342.22
2023-04-12T10:21:32.211Z,100335.16
2023-04-12T10:23:59.546Z,100326.38
2023-04-12T10:26:27.235Z,100332.41
2023-04-12T10:29:33.672Z,100336.66
2023-04-12T10:32:24.330Z,100325.19
2023-04-12T10:34:58.736Z,100311.06
2023-04-12T10:38:04.304Z,100311.88
2023-04-12T10:40:33.024Z,100303.03
2023-04-12T10:43:28.674Z,100304.72
2023-04-12T10:45:55.925Z,100294.25
2023-04-12T10:48:52.519Z,100285.53
2023-04-12T10:51:30.742Z,100280.16
2023-04-12T10:54:07.926Z,100286.19
2023-04-12T10:56:35.906Z,100275.53
2023-04-12T10:59:07.260Z,100259.66
2023-04-12T11:01:41.182Z,100258.63
2023-04-12T11:04:20.984Z,100256.78
2023-04-12T11:07:02.613Z,100248.91
2023-04-12T11:09:48.711Z,100251.38
2023-04-12T11:12:28.057Z,100238.34
2023-04-12T11:15:01.547Z,100234.78
2023-04-12T11:17:42.059Z,100238.28
2023-04-12T11:20:13.513Z,100231.25
2023-04-12T11:22:41.020Z,100229.47
2023-04-12T11:25:09.658Z,100238.09
2023-04-12T11:27:38.066Z,100228.38
2023-04-12T11:30:05.832Z,100224.72
2023-04-12T11:32:36.056Z,100221.09
2023-04-12T11:35:03.076Z,100213.97
2023-04-12T11:37:35.621Z,100208.50
2023-04-12T11:40:05.723Z,100218.88
2023-04-12T11:42:33.463Z,100210.84
2023-04-12T11:45:06.535Z,100208.94
2023-04-12T11:47:45.684Z,100192.13
2023-04-12T11:50:12.620Z,100178.84
2023-04-12T11:52:41.135Z,100181.25
2023-04-12T11:55:11.021Z,100175.00
2023-04-12T11:57:39.128Z,100168.88
2023-04-12T12:00:08.305Z,100148.59
2023-04-12T12:02:52.216Z,100147.56
2023-04-12T12:05:24.005Z,100153.53
2023-04-12T12:07:52.628Z,100155.97
2023-04-12T12:10:37.716Z,100152.41
2023-04-12T12:13:14.086Z,100145.22
2023-04-12T12:15:45.635Z,100144.22
2023-04-12T12:18:12.866Z,100133.69
2023-04-12T12:20:50.846Z,100129.19
2023-04-12T12:23:32.105Z,100124.84
2023-04-12T12:26:16.714Z,100108.13
2023-04-12T12:28:53.366Z,100108.94
2023-04-12T12:31:22.967Z,100106.25
2023-04-12T12:33:53.384Z,100105.38
2023-04-12T12:36:21.111Z,100102.72
2023-04-12T12:38:49.334Z,100101.00
2023-04-12T12:41:19.702Z,100101.09
2023-04-12T12:43:46.985Z,100095.91
2023-04-12T12:46:14.111Z,100094.13
2023-04-12T12:48:42.216Z,100102.88
2023-04-12T12:51:10.101Z,100095.84
2023-04-12T12:53:37.736Z,100089.63
2023-04-12T12:56:05.049Z,100079.97
2023-04-12T12:58:32.267Z,100075.19
2023-04-12T13:00:59.222Z,100078.44
2023-04-12T13:03:26.534Z,100070.38
2023-04-12T13:05:53.626Z,100062.31
2023-04-12T13:08:20.694Z,100049.03
2023-04-12T13:10:47.651Z,100047.22
2023-04-12T13:13:14.532Z,100041.03
2023-04-12T13:15:41.546Z,100040.25
2023-04-12T13:18:08.481Z,100036.81
2023-04-12T13:20:35.348Z,100036.00
2023-04-12T13:23:02.196Z,100027.38
2023-04-12T13:25:29.036Z,100026.66
2023-04-12T13:27:56.031Z,100036.38
2023-04-12T13:30:22.902Z,100036.50
2023-04-12T13:32:49.850Z,100036.81
2023-04-12T13:35:16.963Z,100030.78
2023-04-12T13:37:43.811Z,100035.19
2023-04-12T13:40:10.937Z,100028.88
2023-04-12T13:42:37.805Z,100030.53
2023-04-12T13:45:05.377Z,100027.03
2023-04-12T13:47:33.669Z,100018.19
2023-04-12T13:50:03.607Z,100003.31
2023-04-12T13:52:30.461Z,100011.81
2023-04-12T13:54:57.874Z,100003.78
2023-04-12T13:57:24.710Z,100006.97
2023-04-12T13:59:51.566Z,100010.53
2023-04-12T14:02:18.515Z,100004.34
2023-04-12T14:04:53.029Z,99988.53
2023-04-12T14:07:20.595Z,99998.19
2023-04-12T14:09:48.609Z,99984.13
2023-04-12T14:12:15.744Z,99978.91
2023-04-12T14:14:42.606Z,99981.53
2023-04-12T14:17:09.466Z,99983.22
2023-04-12T14:19:36.365Z,99980.66
2023-04-12T14:22:03.821Z,99983.06
2023-04-12T14:24:31.386Z,99973.41
2023-04-12T14:27:00.814Z,99964.72
2023-04-12T14:29:27.771Z,99970.13
2023-04-12T14:31:54.651Z,99968.38
2023-04-12T14:34:21.527Z,99961.69
2023-04-12T14:36:48.451Z,99965.22
2023-04-12T14:39:16.240Z,99967.13
2023-04-12T14:41:43.451Z,99957.63
2023-04-12T14:44:10.480Z,99957.63
2023-04-12T14:46:37.377Z,99968.25
2023-04-12T14:49:04.292Z,99963.03
2023-04-12T14:51:32.165Z,99960.44
2023-04-12T14:53:59.166Z,99956.91
2023-04-12T14:56:30.367Z,99962.19
2023-04-12T14:58:58.448Z,99963.19
2023-04-12T15:01:25.762Z,99958.03
2023-04-12T15:03:53.460Z,99955.50
2023-04-12T15:06:23.148Z,99948.69
2023-04-12T15:08:57.089Z,99948.84
2023-04-12T15:11:26.944Z,99947.16
2023-04-12T15:13:54.968Z,99939.47
2023-04-12T15:16:22.772Z,99948.22
2023-04-12T15:18:51.553Z,99942.16
2023-04-12T15:21:18.718Z,99951.00
2023-04-12T15:23:46.284Z,99937.22
2023-04-12T15:26:14.296Z,99938.00
2023-04-12T15:28:41.969Z,99946.00
2023-04-12T15:31:09.415Z,99946.09
2023-04-12T15:33:37.031Z,99948.81
2023-04-12T15:36:04.766Z,99938.41
2023-04-12T15:38:31.751Z,99933.22
2023-04-12T15:41:02.016Z,99932.38
2023-04-12T15:43:29.329Z,99927.25
2023-04-12T15:45:56.635Z,99934.25
2023-04-12T15:48:25.618Z,99919.44
2023-04-12T15:50:55.739Z,99933.44
2023-04-12T15:53:27.144Z,99923.91
2023-04-12T15:55:57.658Z,99937.94
2023-04-12T15:58:26.905Z,99931.03
2023-04-12T16:00:54.160Z,99935.56
2023-04-12T16:03:23.381Z,99939.13
2023-04-12T16:05:54.093Z,99932.19
2023-04-12T16:08:22.201Z,99928.78
2023-04-12T16:10:50.546Z,99921.09
2023-04-12T16:13:18.269Z,99919.38
2023-04-12T16:15:45.713Z,99914.22
2023-04-12T16:18:12.982Z,99905.69
2023-04-12T16:20:42.837Z,99909.28
2023-04-12T16:23:09.869Z,99916.19
2023-04-12T16:25:36.774Z,99904.78
2023-04-12T16:28:03.942Z,99909.16
2023-04-12T16:30:35.064Z,99903.91
2023-04-12T16:33:02.093Z,99897.84
2023-04-12T16:35:29.077Z,99889.22
2023-04-12T16:37:56.354Z,99891.88
2023-04-12T16:40:24.500Z,99896.34
2023-04-12T16:42:51.644Z,99896.34
2023-04-12T16:45:18.704Z,99890.16
2023-04-12T16:47:47.012Z,99882.25
2023-04-12T16:50:14.168Z,99877.00
2023-04-12T16:52:41.726Z,99875.25
2023-04-12T16:55:12.003Z,99863.81
2023-04-12T16:57:44.161Z,99861.25
2023-04-12T17:00:20.499Z,99854.09
2023-04-12T17:02:50.325Z,99848.03
2023-04-12T17:05:18.137Z,99850.59
2023-04-12T17:07:50.575Z,99846.19
2023-04-12T17:10:19.459Z,99843.56
2023-04-12T17:12:48.345Z,99840.94
2023-04-12T17:15:17.933Z,99849.75
2023-04-12T17:17:50.753Z,99851.56
2023-04-12T17:20:20.490Z,99838.53
2023-04-12T17:22:48.692Z,99843.84
2023-04-12T17:25:16.209Z,99852.69
2023-04-12T17:27:44.282Z,99842.31
2023-04-12T17:30:12.395Z,99848.53
2023-04-12T17:32:40.354Z,99845.09
2023-04-12T17:35:08.120Z,99841.72
2023-04-12T17:37:36.029Z,99838.38
2023-04-12T17:40:05.370Z,99844.56
2023-04-12T17:42:32.421Z,99840.31
2023-04-12T17:44:59.412Z,99849.06
2023-04-12T17:47:26.362Z,99846.47
2023-04-12T17:49:53.334Z,99839.47
2023-04-12T17:52:20.365Z,99844.78
2023-04-12T17:54:47.247Z,99855.25
2023-04-12T17:57:14.179Z,99848.28
2023-04-12T17:59:41.610Z,99844.78
2023-04-12T18:02:08.915Z,99854.38
2023-04-12T18:04:36.677Z,99860.50
2023-04-12T18:07:04.574Z,99861.38
2023-04-12T18:09:31.543Z,99862.31
2023-04-12T18:11:58.503Z,99866.72
2023-04-12T18:14:25.657Z,99855.47
2023-04-12T18:16:52.583Z,99860.09
2023-04-12T18:19:19.466Z,99862.88
2023-04-12T18:21:48.359Z,99874.25
2023-04-12T18:24:16.887Z,99865.66
2023-04-12T18:26:45.051Z,99877.94
2023-04-12T18:29:14.333Z,99877.97
2023-04-12T18:31:41.924Z,99871.03
2023-04-12T18:34:09.156Z,99867.63
2023-04-12T18:36:39.500Z,99872.91
2023-04-12T18:39:07.962Z,99869.44
2023-04-12T18:41:34.911Z,99878.22
2023-04-12T18:44:01.898Z,99873.94
2023-04-12T18:46:29.623Z,99875.84
2023-04-12T18:48:56.878Z,99868.88
2023-04-12T18:51:23.863Z,99869.81
2023-04-12T18:53:51.435Z,99877.72
2023-04-12T18:56:23.183Z,99868.19
2023-04-12T18:58:56.182Z,99860.47
2023-04-12T19:01:25.191Z,99865.78
2023-04-12T19:03:52.806Z,99856.19
2023-04-12T19:06:19.966Z,99858.91
2023-04-12T19:08:46.890Z,99850.25
2023-04-12T19:11:13.881Z,99854.69
2023-04-12T19:13:40.804Z,99857.41
2023-04-12T19:16:08.126Z,99854.00
2023-04-12T19:18:35.365Z,99854.13
2023-04-12T19:21:03.257Z,99863.00
2023-04-12T19:23:30.896Z,99852.63
2023-04-12T19:26:00.050Z,99849.09
2023-04-12T19:28:27.863Z,99844.00
2023-04-12T19:30:57.469Z,99855.28
2023-04-12T19:33:24.977Z,99845.78
2023-04-12T19:35:52.316Z,99843.19
2023-04-12T19:38:21.056Z,99842.34
2023-04-12T19:40:48.105Z,99839.88
2023-04-12T19:43:15.012Z,99828.59
2023-04-12T19:45:42.370Z,99825.81
2023-04-12T19:48:09.442Z,99820.63
2023-04-12T19:50:36.452Z,99818.91
2023-04-12T19:53:03.604Z,99811.97
2023-04-12T19:55:30.601Z,99819.91
2023-04-12T19:57:58.448Z,99818.22
2023-04-12T20:00:25.413Z,99821.78
2023-04-12T20:02:54.186Z,99814.78
2023-04-12T20:05:23.205Z,99809.63
2023-04-12T20:07:52.514Z,99807.09
2023-04-12T20:10:20.146Z,99802.81
2023-04-12T20:12:47.139Z,99803.72
2023-04-12T20:15:14.392Z,99793.28
2023-04-12T20:17:43.001Z,99795.06
2023-04-12T20:20:12.731Z,99799.44
2023-04-12T20:22:41.683Z,99801.22
2023-04-12T20:25:10.816Z,99794.28
2023-04-12T20:27:39.066Z,99784.75
2023-04-12T20:30:08.850Z,99791.72
2023-04-12T20:32:36.064Z,99781.25
2023-04-12T20:35:06.682Z,99782.16
2023-04-12T20:37:33.841Z,99779.53
2023-04-12T20:40:00.891Z,99782.16
2023-04-12T20:42:27.876Z,99783.91
2023-04-12T20:44:54.797Z,99776.91
2023-04-12T20:47:22.345Z,99770.00
2023-04-12T20:49:50.480Z,99767.41
2023-04-12T20:52:18.662Z,99765.69
2023-04-12T20:54:45.808Z,99754.38
2023-04-12T20:57:13.987Z,99747.41
2023-04-12T20:59:41.011Z,99739.72
2023-04-12T21:02:09.320Z,99743.06
2023-04-12T21:04:36.668Z,99743.06
2023-04-12T21:07:04.909Z,99730.00
2023-04-12T21:09:31.863Z,99724.75
2023-04-12T21:12:02.580Z,99722.94
2023-04-12T21:14:29.517Z,99713.38
2023-04-12T21:16:56.492Z,99710.78
2023-04-12T21:19:23.476Z,99704.72
2023-04-12T21:21:51.062Z,99712.47
2023-04-12T21:24:18.436Z,99709.03
2023-04-12T21:26:54.735Z,99709.00
2023-04-12T21:29:21.635Z,99704.69
2023-04-12T21:31:48.863Z,99704.63
2023-04-12T21:34:17.134Z,99709.84
2023-04-12T21:36:44.175Z,99718.47
2023-04-12T21:39:11.276Z,99710.59
2023-04-12T21:41:38.154Z,99703.56
2023-04-12T21:44:05.051Z,99707.88
2023-04-12T21:46:31.960Z,99704.34
2023-04-12T21:48:59.056Z,99706.09
2023-04-12T21:51:26.434Z,99702.63
2023-04-12T21:53:53.317Z,99693.88
2023-04-12T21:56:20.262Z,99696.50
2023-04-12T21:58:47.158Z,99695.66
2023-04-12T22:01:14.209Z,99695.66
2023-04-12T22:03:43.708Z,99694.78
2023-04-12T22:06:11.847Z,99696.56
2023-04-12T22:08:42.679Z,99693.94
2023-04-12T22:11:11.009Z,99694.03
2023-04-12T22:13:41.751Z,99697.50
2023-04-12T22:16:13.240Z,99696.75
2023-04-12T22:18:41.186Z,99691.47
2023-04-12T22:21:08.205Z,99691.50
2023-04-12T22:23:38.719Z,99687.22
2023-04-12T22:26:07.958Z,99688.09
2023-04-12T22:28:37.816Z,99688.19
2023-04-12T22:31:08.593Z,99696.97
2023-04-12T22:33:36.947Z,99690.06
2023-04-12T22:36:05.965Z,99683.16
2023-04-12T22:38:37.096Z,99697.22
2023-04-12T22:41:04.144Z,99699.81
2023-04-12T22:43:42.032Z,99694.63
2023-04-12T22:46:15.945Z,99698.09
2023-04-12T22:48:48.001Z,99702.50
2023-04-12T22:51:15.401Z,99702.53
2023-04-12T22:53:43.358Z,99696.44
2023-04-12T22:56:11.213Z,99693.00
2023-04-12T22:58:40.133Z,99692.25
2023-04-12T23:01:07.367Z,99685.50
2023-04-12T23:03:34.477Z,99687.38
2023-04-12T23:06:02.005Z,99696.91
2023-04-12T23:08:29.214Z,99706.56
2023-04-12T23:11:02.849Z,99691.81
2023-04-12T23:13:33.869Z,99700.59
2023-04-12T23:16:03.418Z,99698.00
2023-04-12T23:18:30.586Z,99696.31
2023-04-12T23:20:57.457Z,99699.00
2023-04-12T23:23:27.202Z,99688.63
2023-04-12T23:25:55.429Z,99689.53
2023-04-12T23:28:24.323Z,99686.09
2023-04-12T23:30:51.860Z,99681.78
2023-04-12T23:33:20.734Z,99684.50
2023-04-12T23:35:52.429Z,99686.28
2023-04-12T23:38:34.936Z,99689.81
2023-04-12T23:41:03.855Z,99692.44
2023-04-12T23:43:32.597Z,99692.41
2023-04-12T23:45:59.863Z,99693.25
2023-04-12T23:48:27.112Z,99683.69
2023-04-12T23:50:54.175Z,99683.69
2023-04-12T23:53:21.543Z,99678.47
2023-04-12T23:55:52.089Z,99675.06
2023-04-12T23:58:20.138Z,99687.13
